Time;durP1;ratioP1;P1;durP2;ratioP2;P2;SDS_P1;SDS_P2;PMS_P1;PMS_P2;Temp;Humidity;BMP_temperature;BMP_pressure;BME280_temperature;BME280_humidity;BME280_pressure;Samples;Min_cycle;Max_cycle;Signal;HPM_P1;HPM_P2
2022/11/03 00:00:56;;;;;;;;;;;;;;;;;;5095163;28;19908;-64
2022/11/03 00:03:22;;;;;;;;;;;;;;;;;;5094526;28;19985;-64
2022/11/03 00:06:04;;;;;;;;;;;;;;;;;;5095209;28;19915;-65
2022/11/03 00:08:29;;;;;;;;;;;;;;;;;;5095010;28;19911;-64
2022/11/03 00:10:55;;;;;;;;;;;;;;;;;;5094526;28;20344;-64
2022/11/03 00:13:21;;;;;;;;;;;;;;;;;;5076650;28;19909;-64
2022/11/03 00:15:47;;;;;;;;;;;;;;;;;;5094843;28;19909;-64
2022/11/03 00:18:13;;;;;;;;;;;;;;;;;;5094479;28;19944;-65
2022/11/03 00:20:39;;;;;;;;;;;;;;;;;;5094784;28;19939;-66
2022/11/03 00:23:05;;;;;;;;;;;;;;;;;;5094685;28;19924;-64
2022/11/03 00:25:31;;;;;;;;;;;;;;;;;;5094307;28;19908;-64
2022/11/03 00:27:57;;;;;;;;;;;;;;;;;;5076443;28;19915;-64
2022/11/03 00:30:23;;;;;;;;;;;;;;;;;;5094718;28;19909;-64
2022/11/03 00:32:49;;;;;;;;;;;;;;;;;;5094157;28;19908;-67
2022/11/03 00:35:15;;;;;;;;;;;;;;;;;;5094458;28;19957;-64
2022/11/03 00:37:41;;;;;;;;;;;;;;;;;;5094410;28;19908;-64
2022/11/03 00:40:07;;;;;;;;;;;;;;;;;;5094432;28;19908;-64
2022/11/03 00:42:33;;;;;;;;;;;;;;;;;;5094373;28;20355;-65
2022/11/03 00:44:59;;;;;;;;;;;;;;;;;;5093937;28;19912;-65
2022/11/03 00:47:25;;;;;;;;;;;;;;;;;;5094333;28;20437;-64
2022/11/03 00:49:51;;;;;;;;;;;;;;;;;;5094290;28;19966;-64
2022/11/03 00:52:17;;;;;;;;;;;;;;;;;;5093808;28;19909;-65
2022/11/03 00:54:43;;;;;;;;;;;;;;;;;;5094217;28;19915;-64
2022/11/03 00:57:09;;;;;;;;;;;;;;;;;;5093967;28;19908;-64
2022/11/03 00:59:35;;;;;;;;;;;;;;;;;;5093959;28;19912;-65
2022/11/03 01:02:01;;;;;;;;;;;;;;;;;;5094397;28;19978;-64
2022/11/03 01:07:11;;;;;;;;;;;;;;;;;;5093747;28;19915;-64
2022/11/03 01:09:37;;;;;;;;;;;;;;;;;;5094289;28;20268;-64
2022/11/03 01:12:03;;;;;;;;;;;;;;;;;;5094173;28;19915;-64
2022/11/03 01:14:29;;;;;;;;;;;;;;;;;;5075513;28;19961;-64
2022/11/03 01:16:55;;;;;;;;;;;;;;;;;;5075793;28;19912;-64
2022/11/03 01:19:22;;;;;;;;;;;;;;;;;;5093949;28;20257;-64
2022/11/03 01:21:48;;;;;;;;;;;;;;;;;;5093545;28;19908;-64
2022/11/03 01:24:14;;;;;;;;;;;;;;;;;;5093740;28;20429;-64
2022/11/03 01:26:40;;;;;;;;;;;;;;;;;;5093892;28;19908;-64
2022/11/03 01:29:06;;;;;;;;;;;;;;;;;;5093445;28;19908;-64
2022/11/03 01:31:32;;;;;;;;;;;;;;;;;;5093871;28;20015;-64
2022/11/03 01:33:58;;;;;;;;;;;;;;;;;;5093402;28;19908;-65
2022/11/03 01:36:24;;;;;;;;;;;;;;;;;;5094175;28;19915;-64
2022/11/03 01:38:50;;;;;;;;;;;;;;;;;;5093871;28;19915;-64
2022/11/03 01:41:16;;;;;;;;;;;;;;;;;;5075342;28;19961;-64
2022/11/03 01:43:42;;;;;;;;;;;;;;;;;;5093665;28;19916;-64
2022/11/03 01:46:08;;;;;;;;;;;;;;;;;;5093844;28;19912;-64
2022/11/03 01:48:34;;;;;;;;;;;;;;;;;;5093296;28;20265;-64
2022/11/03 01:51:00;;;;;;;;;;;;;;;;;;5093709;28;19914;-64
2022/11/03 01:53:26;;;;;;;;;;;;;;;;;;5093949;28;20306;-64
2022/11/03 01:55:52;;;;;;;;;;;;;;;;;;5093246;28;20295;-65
2022/11/03 01:58:18;;;;;;;;;;;;;;;;;;5093634;28;19940;-65
2022/11/03 02:00:44;;;;;;;;;;;;;;;;;;5093557;28;19915;-65
2022/11/03 02:03:10;;;;;;;;;;;;;;;;;;5093169;28;19920;-65
2022/11/03 02:05:35;;;;;;;;;;;;;;;;;;5093535;28;19951;-65
2022/11/03 02:08:01;;;;;;;;;;;;;;;;;;5075487;28;19908;-65
2022/11/03 02:10:27;;;;;;;;;;;;;;;;;;5095670;28;19912;-65
2022/11/03 02:12:53;;;;;;;;;;;;;;;;;;5097315;28;19909;-65
2022/11/03 02:15:20;;;;;;;;;;;;;;;;;;5079013;28;19908;-65
2022/11/03 02:17:46;;;;;;;;;;;;;;;;;;5096937;28;20286;-65
2022/11/03 02:20:12;;;;;;;;;;;;;;;;;;5097739;28;19912;-65
2022/11/03 02:22:38;;;;;;;;;;;;;;;;;;5078746;28;19956;-65
2022/11/03 02:25:04;;;;;;;;;;;;;;;;;;5078528;28;19940;-65
2022/11/03 02:27:30;;;;;;;;;;;;;;;;;;5078827;28;19912;-65
2022/11/03 02:29:57;;;;;;;;;;;;;;;;;;5097484;28;19918;-65
2022/11/03 02:32:25;;;;;;;;;;;;;;;;;;5096572;28;19994;-65
2022/11/03 02:34:51;;;;;;;;;;;;;;;;;;5096937;28;19908;-65
2022/11/03 02:37:17;;;;;;;;;;;;;;;;;;5096461;28;20287;-65
2022/11/03 02:39:43;;;;;;;;;;;;;;;;;;5096720;28;19908;-65
2022/11/03 02:42:09;;;;;;;;;;;;;;;;;;5078542;28;19908;-64
2022/11/03 02:44:35;;;;;;;;;;;;;;;;;;5096467;28;19947;-65
2022/11/03 02:47:01;;;;;;;;;;;;;;;;;;5096746;28;19908;-65
2022/11/03 02:49:27;;;;;;;;;;;;;;;;;;5096729;28;20001;-65
2022/11/03 02:51:53;;;;;;;;;;;;;;;;;;5096124;28;19931;-65
2022/11/03 02:54:19;;;;;;;;;;;;;;;;;;5096513;28;19998;-65
2022/11/03 02:56:45;;;;;;;;;;;;;;;;;;5096460;28;19915;-65
2022/11/03 02:59:10;;;;;;;;;;;;;;;;;;5096023;28;19908;-65
2022/11/03 03:01:45;;;;;;;;;;;;;;;;;;5096357;28;19912;-65
2022/11/03 03:04:11;;;;;;;;;;;;;;;;;;5096407;28;19923;-65
2022/11/03 03:06:37;;;;;;;;;;;;;;;;;;5095830;28;19908;-65
2022/11/03 03:09:03;;;;;;;;;;;;;;;;;;5096426;28;19915;-65
2022/11/03 03:11:38;;;;;;;;;;;;;;;;;;5096409;28;19913;-65
2022/11/03 03:14:04;;;;;;;;;;;;;;;;;;5095664;28;19915;-64
2022/11/03 03:16:30;;;;;;;;;;;;;;;;;;5096109;28;19907;-65
2022/11/03 03:18:56;;;;;;;;;;;;;;;;;;5096072;28;19916;-65
2022/11/03 03:21:22;;;;;;;;;;;;;;;;;;5077379;28;19908;-65
2022/11/03 03:23:48;;;;;;;;;;;;;;;;;;5077543;28;19920;-65
2022/11/03 03:26:14;;;;;;;;;;;;;;;;;;5095942;28;19908;-65
2022/11/03 03:28:40;;;;;;;;;;;;;;;;;;5077469;28;20287;-65
2022/11/03 03:31:06;;;;;;;;;;;;;;;;;;5095977;28;19916;-65
2022/11/03 03:33:32;;;;;;;;;;;;;;;;;;5095398;28;19908;-65
2022/11/03 03:35:58;;;;;;;;;;;;;;;;;;5077529;28;19908;-65
2022/11/03 03:38:24;;;;;;;;;;;;;;;;;;5077509;28;19912;-65
2022/11/03 03:40:50;;;;;;;;;;;;;;;;;;5095170;28;19915;-65
2022/11/03 03:43:16;;;;;;;;;;;;;;;;;;5095479;28;20010;-65
2022/11/03 03:45:42;;;;;;;;;;;;;;;;;;5095897;28;20364;-65
2022/11/03 03:48:08;;;;;;;;;;;;;;;;;;5076999;28;20287;-65
2022/11/03 03:50:34;;;;;;;;;;;;;;;;;;5095449;28;20279;-65
2022/11/03 03:53:00;;;;;;;;;;;;;;;;;;5095326;28;19908;-65
2022/11/03 03:55:25;;;;;;;;;;;;;;;;;;5095008;28;19912;-65
2022/11/03 03:57:51;;;;;;;;;;;;;;;;;;5095432;28;19969;-65
2022/11/03 04:00:18;;;;;;;;;;;;;;;;;;5095577;28;19939;-65
2022/11/03 04:02:44;;;;;;;;;;;;;;;;;;5094843;28;19951;-65
2022/11/03 04:05:10;;;;;;;;;;;;;;;;;;5095173;28;19912;-65
2022/11/03 04:07:48;;;;;;;;;;;;;;;;;;5095118;28;19919;-65
2022/11/03 04:10:14;;;;;;;;;;;;;;;;;;5094633;28;19909;-65
2022/11/03 04:23:39;;;;;;;;;;;;;;;;;;5094335;28;20445;-65
2022/11/03 04:26:05;;;;;;;;;;;;;;;;;;5094833;28;20005;-65
2022/11/03 04:28:31;;;;;;;;;;;;;;;;;;5094722;28;19915;-65
2022/11/03 04:30:57;;;;;;;;;;;;;;;;;;5094358;28;20364;-65
2022/11/03 04:33:23;;;;;;;;;;;;;;;;;;5075981;28;20363;-65
2022/11/03 04:35:49;;;;;;;;;;;;;;;;;;5094616;28;19908;-65
2022/11/03 04:38:15;;;;;;;;;;;;;;;;;;5094147;28;19908;-65
2022/11/03 04:40:41;;;;;;;;;;;;;;;;;;5076337;28;20461;-65
2022/11/03 04:43:07;;;;;;;;;;;;;;;;;;5094658;28;20394;-65
2022/11/03 04:45:33;;;;;;;;;;;;;;;;;;5094329;28;19908;-65
2022/11/03 04:47:59;;;;;;;;;;;;;;;;;;5076228;28;19909;-65
2022/11/03 04:50:25;;;;;;;;;;;;;;;;;;5094674;28;19908;-65
2022/11/03 04:52:50;;;;;;;;;;;;;;;;;;5075897;28;19908;-65
2022/11/03 04:55:17;;;;;;;;;;;;;;;;;;5094286;28;19969;-67
2022/11/03 04:57:43;;;;;;;;;;;;;;;;;;5094250;28;19915;-65
2022/11/03 05:00:09;;;;;;;;;;;;;;;;;;5093753;28;19908;-65
2022/11/03 05:02:34;;;;;;;;;;;;;;;;;;5094719;28;20341;-65
2022/11/03 05:05:00;;;;;;;;;;;;;;;;;;5093755;28;20283;-65
2022/11/03 05:07:26;;;;;;;;;;;;;;;;;;5094091;28;19987;-65
2022/11/03 05:09:52;;;;;;;;;;;;;;;;;;5094388;28;19908;-65
2022/11/03 05:12:18;;;;;;;;;;;;;;;;;;5093661;28;19920;-65
2022/11/03 05:14:44;;;;;;;;;;;;;;;;;;5094060;28;20433;-65
2022/11/03 05:17:10;;;;;;;;;;;;;;;;;;5094022;28;19912;-65
2022/11/03 05:19:36;;;;;;;;;;;;;;;;;;5093612;28;19908;-65
2022/11/03 05:22:02;;;;;;;;;;;;;;;;;;5094146;28;20398;-65
2022/11/03 05:24:28;;;;;;;;;;;;;;;;;;5094120;28;20257;-65
2022/11/03 05:26:54;;;;;;;;;;;;;;;;;;5093856;28;19919;-65
2022/11/03 05:29:20;;;;;;;;;;;;;;;;;;5093891;28;19908;-65
2022/11/03 05:31:46;;;;;;;;;;;;;;;;;;5093947;28;19915;-65
2022/11/03 05:34:12;;;;;;;;;;;;;;;;;;5075383;28;19951;-65
2022/11/03 05:36:38;;;;;;;;;;;;;;;;;;5093870;28;19995;-64
2022/11/03 05:39:04;;;;;;;;;;;;;;;;;;5093780;28;19908;-65
2022/11/03 05:41:30;;;;;;;;;;;;;;;;;;5093403;28;19912;-65
2022/11/03 05:43:56;;;;;;;;;;;;;;;;;;5075712;28;19920;-66
2022/11/03 05:46:22;;;;;;;;;;;;;;;;;;5078846;28;19915;-65
2022/11/03 05:48:48;;;;;;;;;;;;;;;;;;5096274;28;19908;-66
2022/11/03 05:51:14;;;;;;;;;;;;;;;;;;5096321;28;19920;-67
2022/11/03 05:53:42;;;;;;;;;;;;;;;;;;5097603;28;19929;-65
2022/11/03 05:56:08;;;;;;;;;;;;;;;;;;5097230;28;20010;-65
2022/11/03 05:58:34;;;;;;;;;;;;;;;;;;5079308;28;20488;-65
2022/11/03 06:01:00;;;;;;;;;;;;;;;;;;5096261;28;20093;-65
2022/11/03 06:03:26;;;;;;;;;;;;;;;;;;5095838;28;20414;-65
2022/11/03 06:05:52;;;;;;;;;;;;;;;;;;5077679;28;20009;-65
2022/11/03 06:08:18;;;;;;;;;;;;;;;;;;5095351;28;19908;-65
2022/11/03 06:10:44;;;;;;;;;;;;;;;;;;5092576;28;19916;-67
2022/11/03 06:13:10;;;;;;;;;;;;;;;;;;5074583;28;19960;-65
2022/11/03 06:15:39;;;;;;;;;;;;;;;;;;5095618;28;19912;-67
2022/11/03 06:18:05;;;;;;;;;;;;;;;;;;5074273;28;20087;-67
2022/11/03 06:20:32;;;;;;;;;;;;;;;;;;5064385;28;20333;-67
2022/11/03 06:22:59;;;;;;;;;;;;;;;;;;5094316;28;19931;-65
2022/11/03 06:25:27;;;;;;;;;;;;;;;;;;5085177;28;19920;-66
2022/11/03 06:27:53;;;;;;;;;;;;;;;;;;5083954;28;20004;-66
2022/11/03 06:30:19;;;;;;;;;;;;;;;;;;5074244;28;19958;-67
2022/11/03 06:32:45;;;;;;;;;;;;;;;;;;5085175;28;19912;-66
2022/11/03 06:35:11;;;;;;;;;;;;;;;;;;5096309;28;19908;-66
2022/11/03 06:37:37;;;;;;;;;;;;;;;;;;5076833;28;19908;-66
2022/11/03 06:40:03;;;;;;;;;;;;;;;;;;5095505;28;19915;-67
2022/11/03 06:42:29;;;;;;;;;;;;;;;;;;5093998;28;20294;-64
2022/11/03 06:44:55;;;;;;;;;;;;;;;;;;5090811;28;19916;-65
2022/11/03 06:47:21;;;;;;;;;;;;;;;;;;5095145;28;19958;-64
2022/11/03 06:49:47;;;;;;;;;;;;;;;;;;5096512;28;19908;-67
2022/11/03 06:52:13;;;;;;;;;;;;;;;;;;5094125;28;20432;-65
2022/11/03 06:54:39;;;;;;;;;;;;;;;;;;5095474;28;19908;-66
2022/11/03 06:57:05;;;;;;;;;;;;;;;;;;5077710;28;19919;-66
2022/11/03 06:59:31;;;;;;;;;;;;;;;;;;5095937;28;19908;-67
2022/11/03 07:01:57;;;;;;;;;;;;;;;;;;5078078;28;19954;-67
2022/11/03 07:04:23;;;;;;;;;;;;;;;;;;5077899;28;20376;-66
2022/11/03 07:06:49;;;;;;;;;;;;;;;;;;5095171;28;19931;-66
2022/11/03 07:09:15;;;;;;;;;;;;;;;;;;5082953;28;20380;-65
2022/11/03 07:11:41;;;;;;;;;;;;;;;;;;5086502;28;20405;-66
2022/11/03 07:14:08;;;;;;;;;;;;;;;;;;5075766;28;19958;-65
2022/11/03 07:16:34;;;;;;;;;;;;;;;;;;5075682;28;19944;-65
2022/11/03 07:18:59;;;;;;;;;;;;;;;;;;5075286;28;19912;-65
2022/11/03 07:21:25;;;;;;;;;;;;;;;;;;5075635;28;19923;-64
2022/11/03 07:23:51;;;;;;;;;;;;;;;;;;5095254;28;19980;-66
2022/11/03 07:26:17;;;;;;;;;;;;;;;;;;5095193;28;19916;-66
2022/11/03 07:28:47;;;;;;;;;;;;;;;;;;5093820;28;19908;-66
2022/11/03 07:31:13;;;;;;;;;;;;;;;;;;5080119;28;19927;-66
2022/11/03 07:33:39;;;;;;;;;;;;;;;;;;5089680;28;19908;-67
2022/11/03 07:40:18;;;;;;;;;;;;;;;;;;5088056;27;19920;-65
2022/11/03 07:44:05;;;;;;;;;;;;;;;;;;5078806;27;19924;-65
2022/11/03 07:46:31;;;;;;;;;;;;;;;;;;5090946;28;19922;-65
2022/11/03 07:48:57;;;;;;;;;;;;;;;;;;5089345;28;19912;-65
2022/11/03 07:51:23;;;;;;;;;;;;;;;;;;5088751;28;19908;-65
2022/11/03 07:53:49;;;;;;;;;;;;;;;;;;5088320;28;20011;-64
2022/11/03 07:56:15;;;;;;;;;;;;;;;;;;5084346;28;19912;-64
2022/11/03 07:58:41;;;;;;;;;;;;;;;;;;5088992;28;19912;-66
2022/11/03 08:04:31;;;;;;;;;;;;;;;;;;5108221;27;20392;-67
2022/11/03 08:06:57;;;;;;;;;;;;;;;;;;5108221;28;19919;-68
2022/11/03 08:12:51;;;;;;;;;;;;;;;;;;5107281;27;19916;-66
2022/11/03 08:15:17;;;;;;;;;;;;;;;;;;5107230;28;20298;-65
2022/11/03 08:17:43;;;;;;;;;;;;;;;;;;5107315;28;19977;-65
2022/11/03 08:24:41;;;;;;;;;;;;;;;;;;5090069;27;19916;-66
2022/11/03 08:29:38;;;;;;;;;;;;;;;;;;5110278;27;19922;-67
2022/11/03 08:32:03;;;;;;;;;;;;;;;;;;5110765;28;20443;-68
2022/11/03 08:35:15;;;;;;;;;;;;;;;;;;5131978;27;19922;-66
2022/11/03 08:37:41;;;;;;;;;;;;;;;;;;5131457;28;20287;-66
2022/11/03 08:40:07;;;;;;;;;;;;;;;;;;5130153;28;19914;-67
2022/11/03 08:44:04;;;;;;;;;;;;;;;;;;5109741;27;20385;-66
2022/11/03 08:46:30;;;;;;;;;;;;;;;;;;5110124;28;20367;-65
2022/11/03 08:48:56;;;;;;;;;;;;;;;;;;5111065;28;19904;-65
2022/11/03 08:51:22;;;;;;;;;;;;;;;;;;5103728;28;19980;-68
2022/11/03 08:55:13;;;;;;;;;;;;;;;;;;5090153;28;19912;-66
2022/11/03 08:57:42;;;;;;;;;;;;;;;;;;5088117;28;19921;-66
2022/11/03 09:00:09;;;;;;;;;;;;;;;;;;5062857;28;19913;-66
2022/11/03 09:03:30;;;;;;;184.27;166.23;;;;;;;;;;4955678;28;2933065;-66
2022/11/03 09:07:27;;;;;;;;;;;;;;;;;;4957298;28;2523363;-64
2022/11/03 09:09:53;;;;;;;;;;;;;;;;;;5044365;28;19916;-66
2022/11/03 09:14:07;;;;;;;;;;;;;;;;;;5107526;27;19938;-67
2022/11/03 09:16:47;;;;;;;;;;;;;;;;;;5154963;27;19919;-65
2022/11/03 09:20:07;;;;;;;;;;;;;;;;;;5058177;28;20434;-66
2022/11/03 09:22:33;;;;;;;;;;;;;;;;;;5068029;28;19920;-65
2022/11/03 09:24:59;;;;;;;;;;;;;;;;;;5059141;28;19916;-64
2022/11/03 09:27:25;;;;;;;;;;;;;;;;;;5067842;28;20042;-64
2022/11/03 09:29:51;;;;;;;;;;;;;;;;;;5060299;28;20329;-65
2022/11/03 09:36:42;;;;;;;;;;;;;;;;;;5062116;28;19921;-65
2022/11/03 09:39:08;;;;;;;;;;;;;;;;;;5048038;28;20004;-65
2022/11/03 09:41:34;;;;;;;;;;;;;;;;;;5046337;28;20000;-66
2022/11/03 09:46:08;;;;;;;;;;;;;;;;;;5108601;27;19916;-64
2022/11/03 09:48:34;;;;;;;;;;;;;;;;;;5102407;28;19916;-65
2022/11/03 09:53:24;;;;;;;;;;;;;;;;;;5104094;27;20926;-67
2022/11/03 09:55:50;;;;;;;;;;;;;;;;;;5099799;28;20417;-65
2022/11/03 09:58:16;;;;;;;;;;;;;;;;;;5099533;28;19987;-63
2022/11/03 10:00:42;;;;;;;;;;;;;;;;;;5090371;28;19912;-62
2022/11/03 10:03:08;;;;;;;;;;;;;;;;;;5098130;28;19918;-61
2022/11/03 10:06:43;;;;;;;;;;;;;;;;;;5109869;27;19923;-63
2022/11/03 10:09:09;;;;;;;;;;;;;;;;;;5102138;28;20010;-63
2022/11/03 10:11:35;;;;;;;;;;;;;;;;;;5109992;28;20012;-64
2022/11/03 10:19:49;;;;;;;;;;;;;;;;;;5085955;27;19923;-63
2022/11/03 10:22:15;;;;;;;;;;;;;;;;;;5079038;28;19913;-63
2022/11/03 10:24:41;;;;;;;;;;;;;;;;;;5076213;28;19915;-62
2022/11/03 10:27:07;;;;;;;;;;;;;;;;;;5072299;28;19924;-62
2022/11/03 10:29:33;;;;;;;;;;;;;;;;;;5067050;28;19909;-62
2022/11/03 10:31:59;;;;;;;;;;;;;;;;;;5066431;28;20423;-62
2022/11/03 10:34:25;;;;;;;;;;;;;;;;;;5068394;28;20430;-62
2022/11/03 10:36:51;;;;;;;;;;;;;;;;;;5068121;28;19912;-63
2022/11/03 10:39:17;;;;;;;;;;;;;;;;;;5068607;28;19920;-64
2022/11/03 10:41:43;;;;;;;;;;;;;;;;;;5080883;28;19908;-63
2022/11/03 10:44:09;;;;;;;;;;;;;;;;;;5074613;28;19920;-62
2022/11/03 10:46:35;;;;;;;;;;;;;;;;;;5069982;28;19999;-64
2022/11/03 10:49:01;;;;;;;;;;;;;;;;;;5075637;28;19920;-62
2022/11/03 10:51:30;;;;;;;;;;;;;;;;;;5071613;28;20321;-65
2022/11/03 10:53:56;;;;;;;;;;;;;;;;;;5060092;28;19920;-66
2022/11/03 10:56:22;;;;;;;;;;;;;;;;;;5060305;28;19913;-65
2022/11/03 10:58:48;;;;;;;;;;;;;;;;;;5054178;28;20410;-66
2022/11/03 11:02:13;;;;;;;;;;;;;;;;;;5108291;27;19916;-66
2022/11/03 11:04:39;;;;;;;;;;;;;;;;;;5089984;28;20014;-66
2022/11/03 11:07:05;;;;;;;;;;;;;;;;;;5090800;28;19913;-64
2022/11/03 11:09:31;;;;;;;;;;;;;;;;;;5090767;28;19954;-66
2022/11/03 11:11:57;;;;;;;;;;;;;;;;;;5089065;28;19940;-64
2022/11/03 11:14:23;;;;;;;;;;;;;;;;;;5090715;28;19919;-67
2022/11/03 11:16:49;;;;;;;;;;;;;;;;;;5090783;28;19908;-66
2022/11/03 11:19:15;;;;;;;;;;;;;;;;;;5090506;28;19908;-65
2022/11/03 11:21:41;;;;;;;;;;;;;;;;;;5090593;28;19916;-65
2022/11/03 11:24:07;;;;;;;;;;;;;;;;;;5090385;28;19999;-65
2022/11/03 11:26:33;;;;;;;;;;;;;;;;;;5088713;28;20406;-65
2022/11/03 11:28:59;;;;;;;;;;;;;;;;;;5090637;28;20284;-65
2022/11/03 11:31:25;;;;;;;;;;;;;;;;;;5090395;28;19909;-65
2022/11/03 11:33:51;;;;;;;;;;;;;;;;;;5089767;28;19909;-65
2022/11/03 11:36:17;;;;;;;;;;;;;;;;;;5089737;28;19931;-66
2022/11/03 11:40:33;;;;;;;;;;;;;;;;;;5119942;27;19919;-67
2022/11/03 11:42:59;;;;;;;;;;;;;;;;;;5129516;28;20019;-64
2022/11/03 11:45:25;;;;;;;;;;;;;;;;;;5110119;28;19916;-65
2022/11/03 11:47:51;;;;;;;;;;;;;;;;;;5128055;28;19918;-64
2022/11/03 11:50:17;;;;;;;;;;;;;;;;;;5129797;28;19908;-66
2022/11/03 11:52:43;;;;;;;;;;;;;;;;;;5109770;27;19948;-64
2022/11/03 11:55:09;;;;;;;;;;;;;;;;;;5112586;28;20339;-65
2022/11/03 11:57:35;;;;;;;;;;;;;;;;;;5099429;28;19912;-65
2022/11/03 12:00:01;;;;;;;;;;;;;;;;;;5107018;28;19926;-65
2022/11/03 12:02:27;;;;;;;;;;;;;;;;;;5109014;28;20396;-65
2022/11/03 12:04:53;;;;;;;;;;;;;;;;;;5115466;28;20003;-65
2022/11/03 12:07:19;;;;;;;;;;;;;;;;;;5127952;28;19990;-65
2022/11/03 12:09:45;;;;;;;;;;;;;;;;;;5124437;28;20294;-64
2022/11/03 12:12:11;;;;;;;;;;;;;;;;;;5120606;28;19923;-66
2022/11/03 12:14:37;;;;;;;;;;;;;;;;;;5124098;28;19956;-66
2022/11/03 12:17:03;;;;;;;;;;;;;;;;;;5126555;28;19907;-66
2022/11/03 12:19:29;;;;;;;;;;;;;;;;;;5114122;28;19923;-66
2022/11/03 12:21:55;;;;;;;;;;;;;;;;;;5127935;28;19918;-67
2022/11/03 12:24:21;;;;;;;;;;;;;;;;;;5086745;28;19998;-67
2022/11/03 12:26:47;;;;;;;;;;;;;;;;;;5110525;28;19918;-65
2022/11/03 12:29:13;;;;;;;;;;;;;;;;;;5111403;28;19915;-65
2022/11/03 12:31:39;;;;;;;;;;;;;;;;;;5092176;28;19975;-67
2022/11/03 12:34:05;;;;;;;;;;;;;;;;;;5110314;28;20287;-67
2022/11/03 12:36:31;;;;;;;;;;;;;;;;;;5108336;28;19974;-67
2022/11/03 12:38:57;;;;;;;;;;;;;;;;;;5108095;28;19920;-65
2022/11/03 12:41:24;;;;;;;;;;;;;;;;;;5115879;28;19931;-66
2022/11/03 12:43:50;;;;;;;;;;;;;;;;;;5115693;27;19912;-66
2022/11/03 12:46:16;;;;;;;;;;;;;;;;;;5128371;28;19922;-66
2022/11/03 12:48:42;;;;;;;;;;;;;;;;;;5116680;27;20303;-65
2022/11/03 12:51:08;;;;;;;;;;;;;;;;;;5098743;28;19908;-65
2022/11/03 12:53:34;;;;;;;;;;;;;;;;;;5095877;28;19953;-66
2022/11/03 12:56:00;;;;;;;;;;;;;;;;;;5100564;28;19912;-65
2022/11/03 12:58:26;;;;;;;;;;;;;;;;;;5116140;28;19919;-69
2022/11/03 13:00:52;;;;;;;;;;;;;;;;;;5116792;28;19912;-68
2022/11/03 13:03:18;;;;;;;;;;;;;;;;;;5116157;28;19957;-65
2022/11/03 13:05:44;;;;;;;;;;;;;;;;;;5116937;28;20355;-66
2022/11/03 13:08:10;;;;;;;;;;;;;;;;;;5115830;28;20354;-67
2022/11/03 13:10:36;;;;;;;;;;;;;;;;;;5115725;28;19919;-66
2022/11/03 13:13:02;;;;;;;;;;;;;;;;;;5116559;28;19908;-68
2022/11/03 13:15:28;;;;;;;;;;;;;;;;;;5109642;28;19965;-67
2022/11/03 13:17:55;;;;;;;;;;;;;;;;;;5099509;28;19951;-67
2022/11/03 13:20:21;;;;;;;;;;;;;;;;;;5115211;28;19922;-67
2022/11/03 13:22:47;;;;;;;;;;;;;;;;;;5115166;28;19912;-67
2022/11/03 13:25:13;;;;;;;;;;;;;;;;;;5110097;28;19908;-68
2022/11/03 13:27:39;;;;;;;;;;;;;;;;;;5107707;28;19930;-69
2022/11/03 13:30:06;;;;;;;;;;;;;;;;;;5093876;28;19912;-68
2022/11/03 13:32:32;;;;;;;;;;;;;;;;;;5093426;28;19954;-67
2022/11/03 13:34:58;;;;;;;;;;;;;;;;;;5094286;28;19944;-66
2022/11/03 13:37:24;;;;;;;;;;;;;;;;;;5105259;27;19908;-66
2022/11/03 13:39:50;;;;;;;;;;;;;;;;;;5111152;28;20390;-66
2022/11/03 13:42:16;;;;;;;;;;;;;;;;;;5112825;27;20006;-67
2022/11/03 13:44:42;;;;;;;;;;;;;;;;;;5114555;28;19908;-65
2022/11/03 13:47:08;;;;;;;;;;;;;;;;;;5115412;28;19915;-66
2022/11/03 13:49:34;;;;;;;;;;;;;;;;;;5113578;28;20351;-67
2022/11/03 13:52:00;;;;;;;;;;;;;;;;;;5112352;28;20013;-67
2022/11/03 13:54:26;;;;;;;;;;;;;;;;;;5098488;28;20382;-67
2022/11/03 13:56:52;;;;;;;;;;;;;;;;;;5100853;28;19931;-66
2022/11/03 13:59:18;;;;;;;;;;;;;;;;;;5110024;28;20022;-64
2022/11/03 14:01:44;;;;;;;;;;;;;;;;;;5102445;28;19916;-64
2022/11/03 14:04:10;;;;;;;;;;;;;;;;;;5113489;28;19915;-65
2022/11/03 14:06:36;;;;;;;;;;;;;;;;;;5113321;28;19908;-65
2022/11/03 14:09:02;;;;;;;;;;;;;;;;;;5113743;28;19985;-65
2022/11/03 14:14:12;;;;;;;;;;;;;;;;;;5113301;28;20000;-65
2022/11/03 14:16:38;;;;;;;;;;;;;;;;;;5114088;28;19908;-65
2022/11/03 14:19:04;;;;;;;;;;;;;;;;;;5114602;28;19922;-65
2022/11/03 14:21:31;;;;;;;;;;;;;;;;;;5113497;28;19908;-65
2022/11/03 14:23:57;;;;;;;;;;;;;;;;;;5114359;28;20205;-64
2022/11/03 14:26:23;;;;;;;;;;;;;;;;;;5115407;28;19999;-66
2022/11/03 14:28:49;;;;;;;;;;;;;;;;;;5114950;28;19935;-65
2022/11/03 14:31:15;;;;;;;;;;;;;;;;;;5115356;28;20253;-66
2022/11/03 14:33:40;;;;;;;;;;;;;;;;;;5115281;28;19908;-64
2022/11/03 14:36:06;;;;;;;;;;;;;;;;;;5114764;28;19908;-64
2022/11/03 14:38:32;;;;;;;;;;;;;;;;;;5114977;28;19920;-64
2022/11/03 14:43:43;;;;;;;;;;;;;;;;;;5114668;28;19931;-64
2022/11/03 14:46:09;;;;;;;;;;;;;;;;;;5114980;28;20359;-64
2022/11/03 14:48:35;;;;;;;;;;;;;;;;;;5115095;28;19915;-64
2022/11/03 14:51:01;;;;;;;;;;;;;;;;;;5114572;28;19911;-65
2022/11/03 14:53:27;;;;;;;;;;;;;;;;;;5114892;28;19912;-65
2022/11/03 14:55:53;;;;;;;;;;;;;;;;;;5114713;28;19911;-65
2022/11/03 15:00:43;;;;;;;;;;;;;;;;;;5091366;27;20287;-64
2022/11/03 15:03:09;;;;;;;;;;;;;;;;;;5089747;28;19912;-64
2022/11/03 15:05:44;;;;;;;;;;;;;;;;;;5091300;28;19942;-65
2022/11/03 15:08:10;;;;;;;;;;;;;;;;;;5091726;28;19920;-65
2022/11/03 15:10:36;;;;;;;;;;;;;;;;;;5090782;28;19912;-65
2022/11/03 15:16:10;;;;;;;;;;;;;;;;;;5112452;27;19916;-64
2022/11/03 15:18:36;;;;;;;;;;;;;;;;;;5110125;28;20007;-65
2022/11/03 15:21:02;;;;;;;;;;;;;;;;;;5110709;28;19912;-64
2022/11/03 15:23:28;;;;;;;;;;;;;;;;;;5112062;28;19994;-64
2022/11/03 15:25:54;;;;;;;;;;;;;;;;;;5111320;28;20269;-64
2022/11/03 15:29:22;;;;;;;;;;;;;;;;;;5112248;27;20275;-66
2022/11/03 15:33:27;;;;;;;;;;;;;;;;;;5091507;27;19917;-64
2022/11/03 15:35:53;;;;;;;;;;;;;;;;;;5089960;28;20003;-64
2022/11/03 15:38:19;;;;;;;;;;;;;;;;;;5091370;28;20004;-64
2022/11/03 15:40:45;;;;;;;;;;;;;;;;;;5091533;28;19908;-64
2022/11/03 15:43:11;;;;;;;;;;;;;;;;;;5091256;28;20285;-65
2022/11/03 15:45:39;;;;;;;;;;;;;;;;;;5089504;28;19916;-64
2022/11/03 15:48:05;;;;;;;;;;;;;;;;;;5091239;28;19909;-65
2022/11/03 15:56:23;;;;;;;;;;;;;;;;;;5111801;27;19916;-62
2022/11/03 16:00:14;;;;;;;;;;;;;;;;;;5111446;27;19916;-65
2022/11/03 16:07:51;;;;;;;;;;;;;;;;;;5091231;27;20300;-63
2022/11/03 16:10:16;;;;;;;;;;;;;;;;;;5091443;28;20011;-63
2022/11/03 16:12:43;;;;;;;;;;;;;;;;;;5090613;28;20011;-64
2022/11/03 16:15:09;;;;;;;;;;;;;;;;;;5088762;28;19934;-64
2022/11/03 16:24:31;;;;;;;;;;;;;;;;;;5111498;27;19922;-64
2022/11/03 16:26:57;;;;;;;;;;;;;;;;;;5111409;28;19994;-64
2022/11/03 16:34:19;;;;;;;;;;;;;;;;;;5111912;27;20011;-64
2022/11/03 16:36:45;;;;;;;;;;;;;;;;;;5093352;28;19959;-64
2022/11/03 16:39:11;;;;;;;;;;;;;;;;;;5111841;28;19915;-64
2022/11/03 16:41:37;;;;;;;;;;;;;;;;;;5111654;28;19912;-64
2022/11/03 16:47:48;;;;;;;;;;;;;;;;;;5132692;27;19915;-65
2022/11/03 16:50:17;;;;;;;;;;;;;;;;;;5131756;28;19964;-65
2022/11/03 16:52:43;;;;;;;;;;;;;;;;;;5132672;28;19908;-65
2022/11/03 16:55:10;;;;;;;;;;;;;;;;;;5132076;28;19999;-65
2022/11/03 16:57:36;;;;;;;;;;;;;;;;;;5131616;28;20367;-64
2022/11/03 17:00:25;;;;;;;;;;;;;;;;;;5091451;28;19919;-64
2022/11/03 17:03:44;;;;;;;;;;;;;;;;;;5111727;27;19938;-63
2022/11/03 17:07:10;;;;;;;;;;;;;;;;;;5111726;27;20376;-66
2022/11/03 17:09:36;;;;;;;;;;;;;;;;;;5111363;28;20006;-64
2022/11/03 17:12:02;;;;;;;;;;;;;;;;;;5111662;28;20326;-64
2022/11/03 17:14:28;;;;;;;;;;;;;;;;;;5111595;28;20015;-66
2022/11/03 17:16:55;;;;;;;;;;;;;;;;;;5111388;28;19912;-65
2022/11/03 17:22:37;;;;;;;;;;;;;;;;;;5071693;28;19917;-64
2022/11/03 17:25:03;;;;;;;;;;;;;;;;;;5071180;28;20444;-65
2022/11/03 17:27:29;;;;;;;;;;;;;;;;;;5071138;28;19908;-64
2022/11/03 17:29:54;;;;;;;;;;;;;;;;;;5071114;28;19908;-64
2022/11/03 17:32:20;;;;;;;;;;;;;;;;;;5070640;28;19908;-63
2022/11/03 17:35:09;;;;;;;;;;;;;;;;;;5091538;27;19913;-63
2022/11/03 17:37:35;;;;;;;;;;;;;;;;;;5091031;28;20345;-63
2022/11/03 17:43:25;;;;;;;;;;;;;;;;;;5091704;27;19922;-63
2022/11/03 17:45:52;;;;;;;;;;;;;;;;;;5089769;28;19913;-63
2022/11/03 17:48:18;;;;;;;;;;;;;;;;;;5091318;28;19915;-64
2022/11/03 17:50:44;;;;;;;;;;;;;;;;;;5091258;28;20285;-63
2022/11/03 17:53:10;;;;;;;;;;;;;;;;;;5089809;28;20011;-64
2022/11/03 18:00:07;;;;;;;;;;;;;;;;;;5111714;27;19916;-66
2022/11/03 18:02:34;;;;;;;;;;;;;;;;;;5111696;28;19912;-63
2022/11/03 18:04:59;;;;;;;;;;;;;;;;;;5111840;28;19982;-64
2022/11/03 18:07:25;;;;;;;;;;;;;;;;;;5111430;28;19908;-63
2022/11/03 18:09:51;;;;;;;;;;;;;;;;;;5111490;28;19912;-65
2022/11/03 18:15:17;;;;;;;;;;;;;;;;;;5111783;27;19927;-62
2022/11/03 18:17:43;;;;;;;;;;;;;;;;;;5111604;28;20006;-63
2022/11/03 18:21:51;;;;;;;;;;;;;;;;;;5090879;28;19912;-61
2022/11/03 18:24:17;;;;;;;;;;;;;;;;;;5091329;28;20011;-62
2022/11/03 18:28:15;;;;;;;;;;;;;;;;;;5111404;27;19922;-63
2022/11/03 18:32:06;;;;;;;;;;;;;;;;;;5112014;27;19922;-64
2022/11/03 18:36:05;;;;;;;;;;;;;;;;;;5111526;27;20294;-65
2022/11/03 18:39:57;;;;;;;;;;;;;;;;;;5111670;27;20302;-65
2022/11/03 18:42:22;;;;;;;;;;;;;;;;;;5111414;28;19994;-65